sensor_id;sensor_type;location;lat;lon;timestamp;pressure;altitude;pressure_sealevel;temperature;humidity
8101;BME280;4093;53.470;9.832;2023-03-23T00:01:59;100210.25;;;13.13;96.45
8101;BME280;4093;53.470;9.832;2023-03-23T00:04:26;100218.28;;;13.31;96.95
8101;BME280;4093;53.470;9.832;2023-03-23T00:06:55;100202.38;;;13.40;96.15
8101;BME280;4093;53.470;9.832;2023-03-23T00:09:22;100175.38;;;13.20;96.17
8101;BME280;4093;53.470;9.832;2023-03-23T00:11:51;100211.53;;;13.27;96.70
8101;BME280;4093;53.470;9.832;2023-03-23T00:14:23;100217.00;;;13.42;97.20
8101;BME280;4093;53.470;9.832;2023-03-23T00:16:50;100215.66;;;13.32;97.76
8101;BME280;4093;53.470;9.832;2023-03-23T00:19:17;100200.81;;;13.36;97.73
8101;BME280;4093;53.470;9.832;2023-03-23T00:21:45;100190.31;;;12.67;100.00
8101;BME280;4093;53.470;9.832;2023-03-23T00:24:13;100207.59;;;13.15;99.35
8101;BME280;4093;53.470;9.832;2023-03-23T00:26:42;100198.78;;;13.19;99.04
8101;BME280;4093;53.470;9.832;2023-03-23T00:29:13;100188.69;;;13.11;99.33
8101;BME280;4093;53.470;9.832;2023-03-23T00:31:40;100180.44;;;13.00;99.15
8101;BME280;4093;53.470;9.832;2023-03-23T00:34:13;100174.72;;;12.92;100.00
8101;BME280;4093;53.470;9.832;2023-03-23T00:36:43;100173.38;;;12.57;100.00
8101;BME280;4093;53.470;9.832;2023-03-23T00:39:10;100170.69;;;12.83;100.00
8101;BME280;4093;53.470;9.832;2023-03-23T00:41:37;100166.25;;;12.62;100.00
8101;BME280;4093;53.470;9.832;2023-03-23T00:44:05;100150.94;;;13.03;100.00
8101;BME280;4093;53.470;9.832;2023-03-23T00:46:35;100129.50;;;12.74;100.00
8101;BME280;4093;53.470;9.832;2023-03-23T00:49:13;100113.22;;;12.70;100.00
8101;BME280;4093;53.470;9.832;2023-03-23T00:51:40;100119.81;;;13.03;100.00
8101;BME280;4093;53.470;9.832;2023-03-23T00:54:10;100129.38;;;12.79;100.00
8101;BME280;4093;53.470;9.832;2023-03-23T00:56:37;100126.84;;;12.52;100.00
8101;BME280;4093;53.470;9.832;2023-03-23T00:59:05;100127.44;;;12.84;100.00
8101;BME280;4093;53.470;9.832;2023-03-23T01:01:32;100082.84;;;12.50;100.00
8101;BME280;4093;53.470;9.832;2023-03-23T01:04:02;100116.38;;;13.02;100.00
8101;BME280;4093;53.470;9.832;2023-03-23T01:06:31;100099.50;;;12.90;100.00
8101;BME280;4093;53.470;9.832;2023-03-23T01:09:00;100083.88;;;12.68;100.00
8101;BME280;4093;53.470;9.832;2023-03-23T01:11:29;100079.06;;;13.05;100.00
8101;BME280;4093;53.470;9.832;2023-03-23T01:13:57;100096.03;;;12.91;100.00
8101;BME280;4093;53.470;9.832;2023-03-23T01:16:24;100091.38;;;13.00;100.00
8101;BME280;4093;53.470;9.832;2023-03-23T01:18:51;100088.72;;;13.01;100.00
8101;BME280;4093;53.470;9.832;2023-03-23T01:21:21;100082.28;;;13.11;100.00
8101;BME280;4093;53.470;9.832;2023-03-23T01:23:50;100087.94;;;13.21;100.00
8101;BME280;4093;53.470;9.832;2023-03-23T01:26:19;100072.00;;;13.08;100.00
8101;BME280;4093;53.470;9.832;2023-03-23T01:28:50;100085.91;;;12.84;100.00
8101;BME280;4093;53.470;9.832;2023-03-23T01:31:22;100063.69;;;12.53;100.00
8101;BME280;4093;53.470;9.832;2023-03-23T01:33:51;100084.31;;;13.03;100.00
8101;BME280;4093;53.470;9.832;2023-03-23T01:36:21;100082.28;;;13.11;100.00
8101;BME280;4093;53.470;9.832;2023-03-23T01:38:50;100070.56;;;13.01;100.00
8101;BME280;4093;53.470;9.832;2023-03-23T01:41:18;100060.81;;;12.84;100.00
8101;BME280;4093;53.470;9.832;2023-03-23T01:44:01;100065.84;;;13.11;100.00
8101;BME280;4093;53.470;9.832;2023-03-23T01:46:31;100057.88;;;13.15;100.00
8101;BME280;4093;53.470;9.832;2023-03-23T01:49:02;100060.81;;;13.30;100.00
8101;BME280;4093;53.470;9.832;2023-03-23T01:51:40;100044.34;;;12.85;100.00
8101;BME280;4093;53.470;9.832;2023-03-23T01:54:12;100049.13;;;12.96;100.00
8101;BME280;4093;53.470;9.832;2023-03-23T01:56:44;100049.44;;;12.88;100.00
8101;BME280;4093;53.470;9.832;2023-03-23T01:59:15;100039.31;;;13.04;100.00
8101;BME280;4093;53.470;9.832;2023-03-23T02:01:44;100047.59;;;12.90;100.00
8101;BME280;4093;53.470;9.832;2023-03-23T02:04:13;100046.28;;;12.80;100.00
8101;BME280;4093;53.470;9.832;2023-03-23T02:06:43;100052.31;;;12.81;100.00
8101;BME280;4093;53.470;9.832;2023-03-23T02:09:12;100046.53;;;12.96;100.00
8101;BME280;4093;53.470;9.832;2023-03-23T02:11:43;100045.81;;;13.14;100.00
8101;BME280;4093;53.470;9.832;2023-03-23T02:14:10;100041.81;;;12.84;100.00
8101;BME280;4093;53.470;9.832;2023-03-23T02:16:41;100047.63;;;13.34;100.00
8101;BME280;4093;53.470;9.832;2023-03-23T02:19:27;100043.69;;;13.26;100.00
8101;BME280;4093;53.470;9.832;2023-03-23T02:22:24;100033.06;;;12.86;100.00
8101;BME280;4093;53.470;9.832;2023-03-23T02:24:58;100039.31;;;13.04;100.00
8101;BME280;4093;53.470;9.832;2023-03-23T02:27:48;100035.53;;;12.89;100.00
8101;BME280;4093;53.470;9.832;2023-03-23T02:30:45;100035.34;;;12.94;100.00
8101;BME280;4093;53.470;9.832;2023-03-23T02:33:34;100027.22;;;13.03;100.00
8101;BME280;4093;53.470;9.832;2023-03-23T02:36:11;100017.50;;;13.08;100.00
8101;BME280;4093;53.470;9.832;2023-03-23T02:38:44;100016.72;;;13.06;100.00
8101;BME280;4093;53.470;9.832;2023-03-23T02:41:18;100002.75;;;12.65;100.00
8101;BME280;4093;53.470;9.832;2023-03-23T02:43:47;99976.88;;;12.63;100.00
8101;BME280;4093;53.470;9.832;2023-03-23T02:46:16;100000.16;;;12.65;100.00
8101;BME280;4093;53.470;9.832;2023-03-23T02:48:47;100001.25;;;13.03;100.00
8101;BME280;4093;53.470;9.832;2023-03-23T02:51:18;99995.94;;;13.06;100.00
8101;BME280;4093;53.470;9.832;2023-03-23T02:53:47;100009.78;;;13.51;100.00
8101;BME280;4093;53.470;9.832;2023-03-23T02:56:17;100005.09;;;13.59;100.00
8101;BME280;4093;53.470;9.832;2023-03-23T02:58:44;100003.47;;;13.77;98.87
8101;BME280;4093;53.470;9.832;2023-03-23T03:01:44;99984.09;;;13.21;100.00
8101;BME280;4093;53.470;9.832;2023-03-23T03:04:07;99984.97;;;13.64;99.38
8101;BME280;4093;53.470;9.832;2023-03-23T03:06:42;99974.81;;;13.37;100.00
8101;BME280;4093;53.470;9.832;2023-03-23T03:09:18;99994.00;;;13.76;98.85
8101;BME280;4093;53.470;9.832;2023-03-23T03:11:57;99984.03;;;13.65;99.21
8101;BME280;4093;53.470;9.832;2023-03-23T03:14:30;99957.63;;;13.55;100.00
8101;BME280;4093;53.470;9.832;2023-03-23T03:17:02;99948.00;;;13.15;100.00
8101;BME280;4093;53.470;9.832;2023-03-23T03:19:35;99935.81;;;13.17;100.00
8101;BME280;4093;53.470;9.832;2023-03-23T03:22:05;99922.09;;;12.93;100.00
8101;BME280;4093;53.470;9.832;2023-03-23T03:24:35;99912.13;;;13.26;100.00
8101;BME280;4093;53.470;9.832;2023-03-23T03:27:04;99901.00;;;13.23;100.00
8101;BME280;4093;53.470;9.832;2023-03-23T03:29:40;99920.22;;;13.39;100.00
8101;BME280;4093;53.470;9.832;2023-03-23T03:32:11;99931.44;;;13.39;100.00
8101;BME280;4093;53.470;9.832;2023-03-23T03:34:40;99929.69;;;13.40;100.00
8101;BME280;4093;53.470;9.832;2023-03-23T03:37:08;99903.50;;;13.24;100.00
8101;BME280;4093;53.470;9.832;2023-03-23T03:39:39;99902.97;;;13.16;100.00
8101;BME280;4093;53.470;9.832;2023-03-23T03:42:06;99890.88;;;13.37;100.00
8101;BME280;4093;53.470;9.832;2023-03-23T03:44:33;99920.53;;;12.89;100.00
8101;BME280;4093;53.470;9.832;2023-03-23T03:47:02;99919.53;;;13.13;100.00
8101;BME280;4093;53.470;9.832;2023-03-23T03:49:29;99929.19;;;13.32;100.00
8101;BME280;4093;53.470;9.832;2023-03-23T03:51:57;99924.78;;;13.12;100.00
8101;BME280;4093;53.470;9.832;2023-03-23T03:54:24;99923.53;;;13.00;100.00
8101;BME280;4093;53.470;9.832;2023-03-23T03:56:52;99909.06;;;12.94;100.00
8101;BME280;4093;53.470;9.832;2023-03-23T03:59:23;99916.47;;;13.24;100.00
8101;BME280;4093;53.470;9.832;2023-03-23T04:01:51;99910.56;;;13.20;100.00
8101;BME280;4093;53.470;9.832;2023-03-23T04:04:19;99913.81;;;13.48;99.43
8101;BME280;4093;53.470;9.832;2023-03-23T04:06:47;99918.66;;;13.35;99.73
8101;BME280;4093;53.470;9.832;2023-03-23T04:09:17;99918.25;;;13.44;99.51
8101;BME280;4093;53.470;9.832;2023-03-23T04:11:44;99913.69;;;13.08;99.88
8101;BME280;4093;53.470;9.832;2023-03-23T04:14:11;99916.75;;;13.18;100.00
8101;BME280;4093;53.470;9.832;2023-03-23T04:16:38;99929.19;;;13.10;100.00
8101;BME280;4093;53.470;9.832;2023-03-23T04:19:06;99922.88;;;13.58;98.92
8101;BME280;4093;53.470;9.832;2023-03-23T04:21:33;99924.97;;;13.29;99.84
8101;BME280;4093;53.470;9.832;2023-03-23T04:24:00;99933.97;;;13.41;99.71
8101;BME280;4093;53.470;9.832;2023-03-23T04:26:30;99946.13;;;13.40;99.40
8101;BME280;4093;53.470;9.832;2023-03-23T04:28:58;99934.22;;;13.35;99.67
8101;BME280;4093;53.470;9.832;2023-03-23T04:31:25;99919.16;;;13.23;100.00
8101;BME280;4093;53.470;9.832;2023-03-23T04:33:54;99933.06;;;13.62;99.73
8101;BME280;4093;53.470;9.832;2023-03-23T04:36:20;99931.25;;;13.44;98.75
8101;BME280;4093;53.470;9.832;2023-03-23T04:38:49;99927.63;;;13.48;100.00
8101;BME280;4093;53.470;9.832;2023-03-23T04:41:20;99928.66;;;13.64;98.79
8101;BME280;4093;53.470;9.832;2023-03-23T04:43:48;99909.19;;;13.34;98.77
8101;BME280;4093;53.470;9.832;2023-03-23T04:46:18;99915.06;;;13.17;100.00
8101;BME280;4093;53.470;9.832;2023-03-23T04:48:46;99900.75;;;12.86;100.00
8101;BME280;4093;53.470;9.832;2023-03-23T04:51:13;99903.88;;;12.94;100.00
8101;BME280;4093;53.470;9.832;2023-03-23T04:53:43;99919.53;;;13.13;100.00
8101;BME280;4093;53.470;9.832;2023-03-23T04:56:10;99898.69;;;13.15;99.99
8101;BME280;4093;53.470;9.832;2023-03-23T04:58:39;99910.22;;;13.30;100.00
8101;BME280;4093;53.470;9.832;2023-03-23T05:01:08;99908.25;;;13.35;100.00
8101;BME280;4093;53.470;9.832;2023-03-23T05:03:36;99900.38;;;12.95;100.00
8101;BME280;4093;53.470;9.832;2023-03-23T05:06:04;99903.03;;;13.14;100.00
8101;BME280;4093;53.470;9.832;2023-03-23T05:08:32;99905.41;;;13.41;99.37
8101;BME280;4093;53.470;9.832;2023-03-23T05:11:00;99914.44;;;13.32;99.54
8101;BME280;4093;53.470;9.832;2023-03-23T05:13:27;99911.16;;;13.29;99.50
8101;BME280;4093;53.470;9.832;2023-03-23T05:15:55;99907.91;;;13.22;99.76
8101;BME280;4093;53.470;9.832;2023-03-23T05:18:23;99904.91;;;13.33;99.22
8101;BME280;4093;53.470;9.832;2023-03-23T05:20:52;99913.19;;;13.41;98.95
8101;BME280;4093;53.470;9.832;2023-03-23T05:23:20;99915.94;;;13.58;97.96
8101;BME280;4093;53.470;9.832;2023-03-23T05:25:59;99906.59;;;13.54;97.33
8101;BME280;4093;53.470;9.832;2023-03-23T05:28:34;99912.66;;;13.74;97.16
8101;BME280;4093;53.470;9.832;2023-03-23T05:31:01;99912.50;;;13.15;99.46
8101;BME280;4093;53.470;9.832;2023-03-23T05:33:30;99916.47;;;13.04;100.00
8101;BME280;4093;53.470;9.832;2023-03-23T05:35:56;99911.25;;;13.46;98.69
8101;BME280;4093;53.470;9.832;2023-03-23T05:38:26;99911.00;;;13.92;96.00
8101;BME280;4093;53.470;9.832;2023-03-23T05:40:53;99905.22;;;13.46;97.12
8101;BME280;4093;53.470;9.832;2023-03-23T05:43:20;99902.44;;;13.30;99.14
8101;BME280;4093;53.470;9.832;2023-03-23T05:45:47;99909.44;;;12.85;100.00
8101;BME280;4093;53.470;9.832;2023-03-23T05:48:15;99906.72;;;13.31;99.68
8101;BME280;4093;53.470;9.832;2023-03-23T05:50:44;99908.22;;;13.36;98.27
8101;BME280;4093;53.470;9.832;2023-03-23T05:53:11;99897.47;;;13.44;98.31
8101;BME280;4093;53.470;9.832;2023-03-23T05:55:38;99900.22;;;13.41;98.50
8101;BME280;4093;53.470;9.832;2023-03-23T05:58:05;99903.34;;;13.29;98.02
8101;BME280;4093;53.470;9.832;2023-03-23T06:00:32;99908.69;;;13.24;98.60
8101;BME280;4093;53.470;9.832;2023-03-23T06:03:02;99894.53;;;13.33;96.86
8101;BME280;4093;53.470;9.832;2023-03-23T06:05:28;99891.25;;;13.28;97.92
8101;BME280;4093;53.470;9.832;2023-03-23T06:07:58;99899.34;;;13.20;98.36
8101;BME280;4093;53.470;9.832;2023-03-23T06:10:25;99872.00;;;12.91;100.00
8101;BME280;4093;53.470;9.832;2023-03-23T06:12:52;99897.03;;;13.34;97.79
8101;BME280;4093;53.470;9.832;2023-03-23T06:15:20;99893.22;;;13.43;97.07
8101;BME280;4093;53.470;9.832;2023-03-23T06:17:48;99890.88;;;13.37;96.77
8101;BME280;4093;53.470;9.832;2023-03-23T06:20:16;99901.25;;;13.57;96.70
8101;BME280;4093;53.470;9.832;2023-03-23T06:22:44;99910.09;;;13.33;97.39
8101;BME280;4093;53.470;9.832;2023-03-23T06:25:17;99899.16;;;13.65;95.78
8101;BME280;4093;53.470;9.832;2023-03-23T06:27:45;99894.44;;;13.34;98.01
8101;BME280;4093;53.470;9.832;2023-03-23T06:30:13;99905.88;;;13.51;97.07
8101;BME280;4093;53.470;9.832;2023-03-23T06:32:41;99895.44;;;13.32;97.54
8101;BME280;4093;53.470;9.832;2023-03-23T06:35:11;99894.00;;;13.45;96.49
8101;BME280;4093;53.470;9.832;2023-03-23T06:37:38;99898.63;;;13.38;97.23
8101;BME280;4093;53.470;9.832;2023-03-23T06:40:07;99907.63;;;13.30;96.28
8101;BME280;4093;53.470;9.832;2023-03-23T06:42:37;99915.00;;;13.59;95.87
8101;BME280;4093;53.470;9.832;2023-03-23T06:45:05;99918.66;;;13.35;97.11
8101;BME280;4093;53.470;9.832;2023-03-23T06:47:32;99905.66;;;13.76;94.88
8101;BME280;4093;53.470;9.832;2023-03-23T06:50:00;99895.41;;;13.73;94.41
8101;BME280;4093;53.470;9.832;2023-03-23T06:52:27;99909.22;;;13.73;95.85
8101;BME280;4093;53.470;9.832;2023-03-23T06:54:54;99925.50;;;15.77;89.02
8101;BME280;4093;53.470;9.832;2023-03-23T06:57:21;99920.03;;;17.83;78.06
8101;BME280;4093;53.470;9.832;2023-03-23T06:59:50;99886.84;;;18.66;73.13
8101;BME280;4093;53.470;9.832;2023-03-23T07:02:17;99886.31;;;18.34;73.71
8101;BME280;4093;53.470;9.832;2023-03-23T07:04:45;99884.69;;;17.17;76.05
8101;BME280;4093;53.470;9.832;2023-03-23T07:07:12;99876.13;;;16.69;79.01
8101;BME280;4093;53.470;9.832;2023-03-23T07:09:40;99875.91;;;16.26;80.44
8101;BME280;4093;53.470;9.832;2023-03-23T07:12:10;99895.13;;;17.62;75.70
8101;BME280;4093;53.470;9.832;2023-03-23T07:14:38;99884.31;;;17.09;76.48
8101;BME280;4093;53.470;9.832;2023-03-23T07:17:06;99888.53;;;15.86;80.94
8101;BME280;4093;53.470;9.832;2023-03-23T07:19:33;99881.09;;;15.28;83.58
8101;BME280;4093;53.470;9.832;2023-03-23T07:22:01;99900.53;;;15.38;83.61
8101;BME280;4093;53.470;9.832;2023-03-23T07:24:28;99889.84;;;14.92;86.16
8101;BME280;4093;53.470;9.832;2023-03-23T07:26:55;99886.78;;;15.01;87.06
8101;BME280;4093;53.470;9.832;2023-03-23T07:29:23;99893.66;;;15.02;86.85
8101;BME280;4093;53.470;9.832;2023-03-23T07:31:50;99902.38;;;15.19;86.57
8101;BME280;4093;53.470;9.832;2023-03-23T07:34:19;99903.44;;;15.49;85.67
8101;BME280;4093;53.470;9.832;2023-03-23T07:36:46;99902.06;;;15.42;84.37
8101;BME280;4093;53.470;9.832;2023-03-23T07:39:13;99898.69;;;15.23;86.22
8101;BME280;4093;53.470;9.832;2023-03-23T07:41:40;99906.38;;;16.10;82.14
8101;BME280;4093;53.470;9.832;2023-03-23T07:44:10;99911.03;;;16.21;82.49
8101;BME280;4093;53.470;9.832;2023-03-23T07:46:37;99892.34;;;15.79;83.03
8101;BME280;4093;53.470;9.832;2023-03-23T07:49:05;99899.16;;;15.31;85.90
8101;BME280;4093;53.470;9.832;2023-03-23T07:51:35;99897.09;;;14.86;87.86
8101;BME280;4093;53.470;9.832;2023-03-23T07:54:03;99913.69;;;15.53;85.37
8101;BME280;4093;53.470;9.832;2023-03-23T07:56:33;99891.34;;;14.96;87.29
8101;BME280;4093;53.470;9.832;2023-03-23T07:59:00;99906.97;;;15.31;86.66
8101;BME280;4093;53.470;9.832;2023-03-23T08:01:28;99922.44;;;15.52;85.80
8101;BME280;4093;53.470;9.832;2023-03-23T08:03:54;99929.03;;;15.41;87.58
8101;BME280;4093;53.470;9.832;2023-03-23T08:06:23;99928.63;;;15.66;86.58
8101;BME280;4093;53.470;9.832;2023-03-23T08:08:52;99941.22;;;15.76;86.62
8101;BME280;4093;53.470;9.832;2023-03-23T08:11:21;99940.22;;;15.09;89.75
8101;BME280;4093;53.470;9.832;2023-03-23T08:13:48;99932.06;;;14.80;91.01
8101;BME280;4093;53.470;9.832;2023-03-23T08:16:16;99950.88;;;14.68;92.17
8101;BME280;4093;53.470;9.832;2023-03-23T08:18:44;99954.22;;;14.89;91.17
8101;BME280;4093;53.470;9.832;2023-03-23T08:21:12;99964.78;;;15.03;91.44
8101;BME280;4093;53.470;9.832;2023-03-23T08:23:40;99956.69;;;15.09;91.17
8101;BME280;4093;53.470;9.832;2023-03-23T08:26:09;99966.75;;;15.34;88.97
8101;BME280;4093;53.470;9.832;2023-03-23T08:28:38;99963.03;;;15.03;90.22
8101;BME280;4093;53.470;9.832;2023-03-23T08:31:07;99985.41;;;14.71;91.50
8101;BME280;4093;53.470;9.832;2023-03-23T08:33:35;99961.25;;;14.87;90.37
8101;BME280;4093;53.470;9.832;2023-03-23T08:36:03;99948.31;;;14.47;90.87
8101;BME280;4093;53.470;9.832;2023-03-23T08:38:30;99954.59;;;14.62;91.63
8101;BME280;4093;53.470;9.832;2023-03-23T08:40:58;99941.03;;;14.55;90.42
8101;BME280;4093;53.470;9.832;2023-03-23T08:43:27;99982.97;;;15.22;89.10
8101;BME280;4093;53.470;9.832;2023-03-23T08:45:55;99947.72;;;15.32;84.92
8101;BME280;4093;53.470;9.832;2023-03-23T08:48:22;99984.34;;;15.29;84.98
8101;BME280;4093;53.470;9.832;2023-03-23T08:50:49;99977.44;;;14.74;86.32
8101;BME280;4093;53.470;9.832;2023-03-23T08:53:17;99987.03;;;14.91;86.26
8101;BME280;4093;53.470;9.832;2023-03-23T08:55:47;99989.22;;;15.00;83.78
8101;BME280;4093;53.470;9.832;2023-03-23T08:58:14;100001.22;;;15.39;82.11
8101;BME280;4093;53.470;9.832;2023-03-23T09:00:43;99980.38;;;15.04;82.36
8101;BME280;4093;53.470;9.832;2023-03-23T09:03:09;99983.91;;;14.66;84.11
8101;BME280;4093;53.470;9.832;2023-03-23T09:05:40;99998.69;;;15.38;81.25
8101;BME280;4093;53.470;9.832;2023-03-23T09:08:13;99990.06;;;15.55;80.89
8101;BME280;4093;53.470;9.832;2023-03-23T09:10:39;99985.50;;;15.41;80.98
8101;BME280;4093;53.470;9.832;2023-03-23T09:13:06;99981.59;;;15.15;80.24
8101;BME280;4093;53.470;9.832;2023-03-23T09:15:35;99992.78;;;15.34;80.14
8101;BME280;4093;53.470;9.832;2023-03-23T09:18:03;99994.94;;;15.43;81.17
8101;BME280;4093;53.470;9.832;2023-03-23T09:20:31;100005.19;;;15.29;81.09
8101;BME280;4093;53.470;9.832;2023-03-23T09:22:57;100002.88;;;15.06;82.30
8101;BME280;4093;53.470;9.832;2023-03-23T09:25:27;100002.84;;;15.42;80.12
8101;BME280;4093;53.470;9.832;2023-03-23T09:27:56;99991.91;;;14.99;81.07
8101;BME280;4093;53.470;9.832;2023-03-23T09:30:25;99990.78;;;15.22;79.48
8101;BME280;4093;53.470;9.832;2023-03-23T09:32:53;99993.59;;;15.00;80.86
8101;BME280;4093;53.470;9.832;2023-03-23T09:35:22;99975.59;;;14.95;80.84
8101;BME280;4093;53.470;9.832;2023-03-23T09:37:51;100007.81;;;15.46;79.67
8101;BME280;4093;53.470;9.832;2023-03-23T09:40:22;100007.28;;;15.57;79.37
8101;BME280;4093;53.470;9.832;2023-03-23T09:45:43;100013.28;;;15.42;79.21
8101;BME280;4093;53.470;9.832;2023-03-23T09:48:28;100011.66;;;15.39;79.27
8101;BME280;4093;53.470;9.832;2023-03-23T09:51:08;100018.69;;;16.07;76.36
8101;BME280;4093;53.470;9.832;2023-03-23T09:53:39;100026.59;;;15.88;77.62
8101;BME280;4093;53.470;9.832;2023-03-23T09:56:11;100018.72;;;16.23;76.63
8101;BME280;4093;53.470;9.832;2023-03-23T09:58:45;100025.66;;;16.24;77.36
8101;BME280;4093;53.470;9.832;2023-03-23T10:01:21;100008.22;;;15.39;79.64
8101;BME280;4093;53.470;9.832;2023-03-23T10:03:57;99991.59;;;16.09;77.20
8101;BME280;4093;53.470;9.832;2023-03-23T10:06:28;100020.38;;;16.73;76.08
8101;BME280;4093;53.470;9.832;2023-03-23T10:08:58;100007.25;;;16.74;76.59
8101;BME280;4093;53.470;9.832;2023-03-23T10:11:32;100025.75;;;16.87;75.48
8101;BME280;4093;53.470;9.832;2023-03-23T10:14:18;100023.16;;;16.70;77.04
8101;BME280;4093;53.470;9.832;2023-03-23T10:16:55;100005.13;;;16.33;77.56
8101;BME280;4093;53.470;9.832;2023-03-23T10:19:31;99999.94;;;16.65;77.27
8101;BME280;4093;53.470;9.832;2023-03-23T10:22:04;100024.88;;;17.18;76.57
8101;BME280;4093;53.470;9.832;2023-03-23T10:24:36;100025.00;;;17.31;73.92
8101;BME280;4093;53.470;9.832;2023-03-23T10:27:16;100040.31;;;17.53;73.59
8101;BME280;4093;53.470;9.832;2023-03-23T10:29:50;100013.88;;;16.48;74.19
8101;BME280;4093;53.470;9.832;2023-03-23T10:32:36;100038.66;;;16.57;74.48
8101;BME280;4093;53.470;9.832;2023-03-23T10:35:09;100037.81;;;17.20;73.22
8101;BME280;4093;53.470;9.832;2023-03-23T10:37:44;100046.91;;;16.65;75.59
8101;BME280;4093;53.470;9.832;2023-03-23T10:40:16;100051.34;;;16.80;76.48
8101;BME280;4093;53.470;9.832;2023-03-23T10:42:44;100058.25;;;16.81;75.42
8101;BME280;4093;53.470;9.832;2023-03-23T10:45:16;100025.34;;;16.46;75.79
8101;BME280;4093;53.470;9.832;2023-03-23T10:47:48;100047.28;;;17.06;75.66
8101;BME280;4093;53.470;9.832;2023-03-23T10:50:21;100052.72;;;16.70;76.75
8101;BME280;4093;53.470;9.832;2023-03-23T10:52:52;100052.84;;;16.02;78.13
8101;BME280;4093;53.470;9.832;2023-03-23T10:55:21;100074.38;;;16.06;78.96
8101;BME280;4093;53.470;9.832;2023-03-23T10:57:59;100069.13;;;16.23;77.64
8101;BME280;4093;53.470;9.832;2023-03-23T11:00:29;100080.72;;;16.51;77.34
8101;BME280;4093;53.470;9.832;2023-03-23T11:02:59;100095.47;;;16.18;78.79
8101;BME280;4093;53.470;9.832;2023-03-23T11:05:33;100081.97;;;16.61;77.50
8101;BME280;4093;53.470;9.832;2023-03-23T11:08:04;100079.81;;;17.01;76.78
8101;BME280;4093;53.470;9.832;2023-03-23T11:10:38;100089.91;;;17.39;75.71
8101;BME280;4093;53.470;9.832;2023-03-23T11:13:12;100078.47;;;17.09;77.18
8101;BME280;4093;53.470;9.832;2023-03-23T11:15:45;100076.78;;;17.08;77.46
8101;BME280;4093;53.470;9.832;2023-03-23T11:18:22;100087.91;;;16.80;77.83
8101;BME280;4093;53.470;9.832;2023-03-23T11:20:52;100064.78;;;16.73;78.34
8101;BME280;4093;53.470;9.832;2023-03-23T11:23:27;100075.84;;;16.45;79.42
8101;BME280;4093;53.470;9.832;2023-03-23T11:25:57;100084.19;;;17.32;76.69
8101;BME280;4093;53.470;9.832;2023-03-23T11:28:31;100076.59;;;17.73;74.38
8101;BME280;4093;53.470;9.832;2023-03-23T11:30:59;100080.66;;;17.63;75.00
8101;BME280;4093;53.470;9.832;2023-03-23T11:33:36;100087.56;;;17.18;76.28
8101;BME280;4093;53.470;9.832;2023-03-23T11:36:06;100089.00;;;17.24;74.96
8101;BME280;4093;53.470;9.832;2023-03-23T11:38:38;100071.25;;;16.65;76.95
8101;BME280;4093;53.470;9.832;2023-03-23T11:41:10;100090.09;;;17.20;75.52
8101;BME280;4093;53.470;9.832;2023-03-23T11:43:41;100083.03;;;17.06;76.09
8101;BME280;4093;53.470;9.832;2023-03-23T11:46:18;100070.91;;;17.05;75.46
8101;BME280;4093;53.470;9.832;2023-03-23T11:48:52;100081.22;;;16.75;76.26
8101;BME280;4093;53.470;9.832;2023-03-23T11:51:29;100058.97;;;16.34;76.03
8101;BME280;4093;53.470;9.832;2023-03-23T11:54:02;100113.31;;;16.43;77.07
8101;BME280;4093;53.470;9.832;2023-03-23T11:56:34;100110.28;;;16.18;78.21
8101;BME280;4093;53.470;9.832;2023-03-23T11:59:03;100112.00;;;16.35;78.09
8101;BME280;4093;53.470;9.832;2023-03-23T12:01:43;100109.03;;;16.42;77.74
8101;BME280;4093;53.470;9.832;2023-03-23T12:04:32;100110.72;;;16.26;79.67
8101;BME280;4093;53.470;9.832;2023-03-23T12:07:14;100113.00;;;16.50;78.92
8101;BME280;4093;53.470;9.832;2023-03-23T12:09:49;100117.00;;;16.73;78.54
8101;BME280;4093;53.470;9.832;2023-03-23T12:12:23;100116.38;;;16.52;78.33
8101;BME280;4093;53.470;9.832;2023-03-23T12:15:02;100108.09;;;16.26;79.80
8101;BME280;4093;53.470;9.832;2023-03-23T12:17:40;100121.31;;;15.71;81.65
8101;BME280;4093;53.470;9.832;2023-03-23T12:20:20;100107.13;;;15.40;82.80
8101;BME280;4093;53.470;9.832;2023-03-23T12:23:11;100110.13;;;15.86;81.98
8101;BME280;4093;53.470;9.832;2023-03-23T12:26:17;100110.03;;;15.88;81.73
8101;BME280;4093;53.470;9.832;2023-03-23T12:29:16;100120.69;;;16.01;82.10
8101;BME280;4093;53.470;9.832;2023-03-23T12:31:52;100105.00;;;16.02;82.59
8101;BME280;4093;53.470;9.832;2023-03-23T12:34:30;100094.66;;;16.67;79.33
8101;BME280;4093;53.470;9.832;2023-03-23T12:37:14;100115.06;;;16.43;80.93
8101;BME280;4093;53.470;9.832;2023-03-23T12:39:53;100109.47;;;17.31;78.56
8101;BME280;4093;53.470;9.832;2023-03-23T12:42:42;100108.63;;;16.99;77.49
8101;BME280;4093;53.470;9.832;2023-03-23T12:45:20;100089.91;;;16.91;77.34
8101;BME280;4093;53.470;9.832;2023-03-23T12:47:53;100105.94;;;17.17;77.06
8101;BME280;4093;53.470;9.832;2023-03-23T12:50:27;100091.53;;;17.09;77.02
8101;BME280;4093;53.470;9.832;2023-03-23T12:52:58;100082.69;;;16.96;76.53
8101;BME280;4093;53.470;9.832;2023-03-23T12:55:32;100086.53;;;16.89;76.85
8101;BME280;4093;53.470;9.832;2023-03-23T12:58:05;100079.91;;;16.99;75.93
8101;BME280;4093;53.470;9.832;2023-03-23T13:00:46;100086.72;;;17.64;75.22
8101;BME280;4093;53.470;9.832;2023-03-23T13:03:20;100045.81;;;17.32;72.83
8101;BME280;4093;53.470;9.832;2023-03-23T13:05:53;100074.94;;;17.56;73.31
8101;BME280;4093;53.470;9.832;2023-03-23T13:08:25;100031.28;;;16.81;73.91
8101;BME280;4093;53.470;9.832;2023-03-23T13:10:57;100077.63;;;17.25;74.19
8101;BME280;4093;53.470;9.832;2023-03-23T13:13:41;100064.41;;;16.80;75.48
8101;BME280;4093;53.470;9.832;2023-03-23T13:16:16;100076.59;;;17.43;74.39
8101;BME280;4093;53.470;9.832;2023-03-23T13:18:53;100069.59;;;17.28;73.73
8101;BME280;4093;53.470;9.832;2023-03-23T13:21:26;100075.72;;;17.89;73.06
8101;BME280;4093;53.470;9.832;2023-03-23T13:23:59;100066.59;;;18.10;72.04
8101;BME280;4093;53.470;9.832;2023-03-23T13:26:29;100072.44;;;17.39;73.18
8101;BME280;4093;53.470;9.832;2023-03-23T13:28:59;100072.31;;;16.95;73.68
8101;BME280;4093;53.470;9.832;2023-03-23T13:31:30;100065.41;;;16.94;74.08
8101;BME280;4093;53.470;9.832;2023-03-23T13:34:02;100055.56;;;16.50;74.00
8101;BME280;4093;53.470;9.832;2023-03-23T13:36:32;100069.16;;;16.72;73.49